Etusivu
METAR-TAF:

METAR-TAF

Lentoasemat :

Chehalis, Washington, Yhdysvallat

Leveyspiiri: 46-40-37N, Pituuspiiri: 122-58-58W, korkeus merenpinnasta: 54 m

Tämänhetkinen sää

Tämä raportti tehtiin 21 minuuttia sitten, kello 14.15 UTC
Tuuli 12 kn etelästä puuskistuen 17 kn:hen
Lämpötila 14°C
Kosteus 100%
Ilmanpaine 1007 hPa
Näkyvyys: 12.9 km
Hajanaisia pilviä 1600 ft:n korkeudessa
Hajonneita pilviä 2000 ft:n korkeudessa
Pilvistä 3500 ft:n korkeudessa
heikkoa tihkusadetta

METAR: KCLS 251415Z AUTO 18012G17KT 8SM -DZ SCT016 BKN020 OVC035 14/14 A2973 RMK AO2

Aika: 07:36 (14:36 UTC)


TAF: puuttuu

Säähavainnot ja -ennusteet yli 4000 lentoasemalta (METAR- ja TAF-raportit).

Käytössä olevat sääasemat on merkitty karttaan keltaisilla ja punaisilla pisteillä.

Aseta hiiri pisteen päälle nähdäksesi sääaseman nimen.

Klikkaa sitten nähdäksesi säähavainnot ja -ennusteet.

Kartan vaihtaminen: klikkaa mustalla rastilla varustettuja vihreitä pisteitä, niin voit zoomata sisään; viivalla varustettua vihreää pistettä, niin voit zoomata ulos tai vihreitä nuolia, niin pääset viereisille kartoille.


METAR-TAF: